sensor_id;sensor_type;location;lat;lon;timestamp;pressure;altitude;pressure_sealevel;temperature;humidity
24858;BME280;12935;50.782;6.074;2023-07-31T00:01:42;99185.53;;;16.70;100.00
24858;BME280;12935;50.782;6.074;2023-07-31T00:04:08;99183.03;;;16.63;100.00
24858;BME280;12935;50.782;6.074;2023-07-31T00:06:33;99193.03;;;16.57;100.00
24858;BME280;12935;50.782;6.074;2023-07-31T00:08:58;99180.25;;;16.50;100.00
24858;BME280;12935;50.782;6.074;2023-07-31T00:11:23;99177.50;;;16.63;100.00
24858;BME280;12935;50.782;6.074;2023-07-31T00:13:49;99176.72;;;16.62;100.00
24858;BME280;12935;50.782;6.074;2023-07-31T00:16:14;99182.00;;;16.69;100.00
24858;BME280;12935;50.782;6.074;2023-07-31T00:18:39;99197.25;;;16.74;100.00
24858;BME280;12935;50.782;6.074;2023-07-31T00:21:05;99178.19;;;16.67;100.00
24858;BME280;12935;50.782;6.074;2023-07-31T00:23:30;99167.34;;;16.60;100.00
24858;BME280;12935;50.782;6.074;2023-07-31T00:25:55;99179.56;;;16.59;100.00
24858;BME280;12935;50.782;6.074;2023-07-31T00:28:20;99178.38;;;16.47;100.00
24858;BME280;12935;50.782;6.074;2023-07-31T00:30:46;99166.03;;;16.52;100.00
24858;BME280;12935;50.782;6.074;2023-07-31T00:33:11;99177.41;;;16.66;100.00
24858;BME280;12935;50.782;6.074;2023-07-31T00:35:36;99171.19;;;16.62;100.00
24858;BME280;12935;50.782;6.074;2023-07-31T00:38:02;99178.97;;;16.67;100.00
24858;BME280;12935;50.782;6.074;2023-07-31T00:40:27;99174.84;;;16.72;100.00
24858;BME280;12935;50.782;6.074;2023-07-31T00:42:52;99175.84;;;16.78;100.00
24858;BME280;12935;50.782;6.074;2023-07-31T00:45:18;99182.44;;;16.93;100.00
24858;BME280;12935;50.782;6.074;2023-07-31T00:47:43;99182.81;;;16.82;100.00
24858;BME280;12935;50.782;6.074;2023-07-31T00:50:09;99178.69;;;16.87;100.00
24858;BME280;12935;50.782;6.074;2023-07-31T00:52:35;99166.53;;;16.84;100.00
24858;BME280;12935;50.782;6.074;2023-07-31T00:55:01;99173.16;;;16.87;100.00
24858;BME280;12935;50.782;6.074;2023-07-31T00:57:26;99160.59;;;16.86;100.00
24858;BME280;12935;50.782;6.074;2023-07-31T00:59:52;99146.13;;;16.95;100.00
24858;BME280;12935;50.782;6.074;2023-07-31T01:02:17;99149.63;;;17.08;100.00
24858;BME280;12935;50.782;6.074;2023-07-31T01:04:43;99160.56;;;17.11;100.00
24858;BME280;12935;50.782;6.074;2023-07-31T01:07:36;99150.19;;;17.03;100.00
24858;BME280;12935;50.782;6.074;2023-07-31T01:10:08;99152.06;;;17.06;100.00
24858;BME280;12935;50.782;6.074;2023-07-31T01:12:38;99148.06;;;17.07;100.00
24858;BME280;12935;50.782;6.074;2023-07-31T01:15:07;99149.84;;;17.01;100.00
24858;BME280;12935;50.782;6.074;2023-07-31T01:17:36;99141.25;;;16.99;100.00
24858;BME280;12935;50.782;6.074;2023-07-31T01:20:04;99136.03;;;17.01;100.00
24858;BME280;12935;50.782;6.074;2023-07-31T01:22:54;99142.44;;;17.10;100.00
24858;BME280;12935;50.782;6.074;2023-07-31T01:28:13;99141.34;;;17.08;100.00
24858;BME280;12935;50.782;6.074;2023-07-31T01:30:47;99141.13;;;17.02;100.00
24858;BME280;12935;50.782;6.074;2023-07-31T01:33:14;99124.72;;;16.99;100.00
24858;BME280;12935;50.782;6.074;2023-07-31T01:35:44;99129.13;;;16.96;100.00
24858;BME280;12935;50.782;6.074;2023-07-31T01:38:09;99125.38;;;16.90;100.00
24858;BME280;12935;50.782;6.074;2023-07-31T01:40:35;99127.56;;;16.95;100.00
24858;BME280;12935;50.782;6.074;2023-07-31T01:43:00;99134.06;;;17.01;100.00
24858;BME280;12935;50.782;6.074;2023-07-31T01:45:26;99134.66;;;16.96;100.00
24858;BME280;12935;50.782;6.074;2023-07-31T01:47:51;99130.53;;;17.01;100.00
24858;BME280;12935;50.782;6.074;2023-07-31T01:50:17;99127.41;;;17.11;100.00
24858;BME280;12935;50.782;6.074;2023-07-31T01:52:42;99126.72;;;17.20;100.00
24858;BME280;12935;50.782;6.074;2023-07-31T01:55:07;99119.84;;;17.25;100.00
24858;BME280;12935;50.782;6.074;2023-07-31T01:57:33;99120.88;;;17.18;100.00
24858;BME280;12935;50.782;6.074;2023-07-31T01:59:58;99115.78;;;17.16;100.00
24858;BME280;12935;50.782;6.074;2023-07-31T02:02:24;99118.38;;;17.11;100.00
24858;BME280;12935;50.782;6.074;2023-07-31T02:04:49;99117.34;;;17.17;100.00
24858;BME280;12935;50.782;6.074;2023-07-31T02:07:14;99108.16;;;17.21;100.00
24858;BME280;12935;50.782;6.074;2023-07-31T02:09:40;99103.78;;;17.10;100.00
24858;BME280;12935;50.782;6.074;2023-07-31T02:12:05;99102.81;;;17.04;100.00
24858;BME280;12935;50.782;6.074;2023-07-31T02:14:33;99088.94;;;17.17;100.00
24858;BME280;12935;50.782;6.074;2023-07-31T02:16:59;99089.47;;;17.25;100.00
24858;BME280;12935;50.782;6.074;2023-07-31T02:19:24;99092.56;;;17.27;100.00
24858;BME280;12935;50.782;6.074;2023-07-31T02:21:49;99098.53;;;17.25;100.00
24858;BME280;12935;50.782;6.074;2023-07-31T02:24:14;99094.69;;;17.23;100.00
24858;BME280;12935;50.782;6.074;2023-07-31T02:26:40;99090.38;;;17.22;100.00
24858;BME280;12935;50.782;6.074;2023-07-31T02:29:05;99082.41;;;17.24;100.00
24858;BME280;12935;50.782;6.074;2023-07-31T02:31:30;99089.22;;;17.32;100.00
24858;BME280;12935;50.782;6.074;2023-07-31T02:33:55;99085.50;;;17.26;100.00
24858;BME280;12935;50.782;6.074;2023-07-31T02:36:21;99089.53;;;17.34;100.00
24858;BME280;12935;50.782;6.074;2023-07-31T02:38:46;99083.31;;;17.21;100.00
24858;BME280;12935;50.782;6.074;2023-07-31T02:41:11;99077.44;;;17.31;100.00
24858;BME280;12935;50.782;6.074;2023-07-31T02:43:36;99083.06;;;17.28;100.00
24858;BME280;12935;50.782;6.074;2023-07-31T02:46:02;99072.97;;;17.34;100.00
24858;BME280;12935;50.782;6.074;2023-07-31T02:48:27;99078.00;;;17.26;100.00
24858;BME280;12935;50.782;6.074;2023-07-31T02:50:53;99091.09;;;17.35;100.00
24858;BME280;12935;50.782;6.074;2023-07-31T02:53:18;99080.38;;;17.37;100.00
24858;BME280;12935;50.782;6.074;2023-07-31T02:55:43;99076.66;;;17.31;100.00
24858;BME280;12935;50.782;6.074;2023-07-31T02:58:09;99068.41;;;17.40;100.00
24858;BME280;12935;50.782;6.074;2023-07-31T03:00:34;99064.88;;;17.39;100.00
24858;BME280;12935;50.782;6.074;2023-07-31T03:03:00;99059.13;;;17.46;100.00
24858;BME280;12935;50.782;6.074;2023-07-31T03:05:25;99061.09;;;17.46;100.00
24858;BME280;12935;50.782;6.074;2023-07-31T03:07:50;99061.56;;;17.44;100.00
24858;BME280;12935;50.782;6.074;2023-07-31T03:10:16;99061.09;;;17.46;100.00
24858;BME280;12935;50.782;6.074;2023-07-31T03:12:41;99059.72;;;17.50;100.00
24858;BME280;12935;50.782;6.074;2023-07-31T03:15:07;99051.84;;;17.40;100.00
24858;BME280;12935;50.782;6.074;2023-07-31T03:17:33;99046.78;;;17.38;100.00
24858;BME280;12935;50.782;6.074;2023-07-31T03:19:58;99053.78;;;17.30;100.00
24858;BME280;12935;50.782;6.074;2023-07-31T03:22:23;99051.66;;;17.34;100.00
24858;BME280;12935;50.782;6.074;2023-07-31T03:24:49;99047.88;;;17.41;100.00
24858;BME280;12935;50.782;6.074;2023-07-31T03:27:14;99046.00;;;17.38;100.00
24858;BME280;12935;50.782;6.074;2023-07-31T03:29:39;99044.28;;;17.31;100.00
24858;BME280;12935;50.782;6.074;2023-07-31T03:32:05;99049.97;;;17.37;100.00
24858;BME280;12935;50.782;6.074;2023-07-31T03:34:30;99040.47;;;17.38;100.00
24858;BME280;12935;50.782;6.074;2023-07-31T03:36:57;99045.69;;;17.36;100.00
24858;BME280;12935;50.782;6.074;2023-07-31T03:39:22;99044.34;;;17.40;100.00
24858;BME280;12935;50.782;6.074;2023-07-31T03:41:48;99040.28;;;17.32;100.00
24858;BME280;12935;50.782;6.074;2023-07-31T03:44:13;99027.75;;;17.40;100.00
24858;BME280;12935;50.782;6.074;2023-07-31T03:46:38;99024.88;;;17.22;100.00
24858;BME280;12935;50.782;6.074;2023-07-31T03:49:04;99034.66;;;17.14;100.00
24858;BME280;12935;50.782;6.074;2023-07-31T03:51:29;99026.44;;;17.23;100.00
24858;BME280;12935;50.782;6.074;2023-07-31T03:53:54;99023.22;;;17.25;100.00
24858;BME280;12935;50.782;6.074;2023-07-31T03:56:19;99017.75;;;17.12;100.00
24858;BME280;12935;50.782;6.074;2023-07-31T03:58:45;99013.25;;;17.05;100.00
24858;BME280;12935;50.782;6.074;2023-07-31T04:01:10;99013.59;;;17.07;100.00
24858;BME280;12935;50.782;6.074;2023-07-31T04:03:35;99013.91;;;17.09;100.00
24858;BME280;12935;50.782;6.074;2023-07-31T04:06:01;99019.03;;;17.20;100.00
24858;BME280;12935;50.782;6.074;2023-07-31T04:08:26;99002.78;;;17.22;100.00
24858;BME280;12935;50.782;6.074;2023-07-31T04:10:51;99012.50;;;17.27;100.00
24858;BME280;12935;50.782;6.074;2023-07-31T04:13:17;99005.75;;;17.28;100.00
24858;BME280;12935;50.782;6.074;2023-07-31T04:15:42;99018.66;;;17.31;100.00
24858;BME280;12935;50.782;6.074;2023-07-31T04:18:07;99010.94;;;17.26;100.00
24858;BME280;12935;50.782;6.074;2023-07-31T04:20:33;99008.13;;;17.16;100.00
24858;BME280;12935;50.782;6.074;2023-07-31T04:22:58;99010.50;;;17.27;100.00
24858;BME280;12935;50.782;6.074;2023-07-31T04:25:23;99011.97;;;17.41;100.00
24858;BME280;12935;50.782;6.074;2023-07-31T04:27:49;99005.72;;;17.49;100.00
24858;BME280;12935;50.782;6.074;2023-07-31T04:30:14;99006.31;;;17.44;100.00
24858;BME280;12935;50.782;6.074;2023-07-31T04:32:39;99009.22;;;17.19;100.00
24858;BME280;12935;50.782;6.074;2023-07-31T04:35:05;99001.31;;;17.30;100.00
24858;BME280;12935;50.782;6.074;2023-07-31T04:37:30;99001.50;;;17.36;100.00
24858;BME280;12935;50.782;6.074;2023-07-31T04:39:56;98995.53;;;17.37;100.00
24858;BME280;12935;50.782;6.074;2023-07-31T04:42:21;98985.44;;;17.43;100.00
24858;BME280;12935;50.782;6.074;2023-07-31T04:44:47;98985.59;;;17.49;100.00
24858;BME280;12935;50.782;6.074;2023-07-31T04:47:12;98985.69;;;17.36;100.00
24858;BME280;12935;50.782;6.074;2023-07-31T04:49:37;98993.22;;;17.36;100.00
24858;BME280;12935;50.782;6.074;2023-07-31T04:52:03;98996.50;;;17.43;100.00
24858;BME280;12935;50.782;6.074;2023-07-31T04:54:28;98986.69;;;17.51;100.00
24858;BME280;12935;50.782;6.074;2023-07-31T04:56:54;98979.03;;;17.56;100.00
24858;BME280;12935;50.782;6.074;2023-07-31T04:59:19;98981.16;;;17.51;100.00
24858;BME280;12935;50.782;6.074;2023-07-31T05:01:44;98982.38;;;17.50;100.00
24858;BME280;12935;50.782;6.074;2023-07-31T05:04:13;98980.38;;;17.42;100.00
24858;BME280;12935;50.782;6.074;2023-07-31T05:06:39;98988.19;;;17.43;100.00
24858;BME280;12935;50.782;6.074;2023-07-31T05:09:04;98984.66;;;17.43;100.00
24858;BME280;12935;50.782;6.074;2023-07-31T05:11:30;98980.69;;;17.44;100.00
24858;BME280;12935;50.782;6.074;2023-07-31T05:13:55;98981.59;;;17.41;100.00
24858;BME280;12935;50.782;6.074;2023-07-31T05:16:20;98965.97;;;17.47;100.00
24858;BME280;12935;50.782;6.074;2023-07-31T05:18:45;98965.50;;;17.48;100.00
24858;BME280;12935;50.782;6.074;2023-07-31T05:21:11;98969.75;;;17.40;100.00
24858;BME280;12935;50.782;6.074;2023-07-31T05:23:36;98966.88;;;17.44;100.00
24858;BME280;12935;50.782;6.074;2023-07-31T05:26:05;98961.94;;;17.39;100.00
24858;BME280;12935;50.782;6.074;2023-07-31T05:28:31;98975.09;;;17.35;100.00
24858;BME280;12935;50.782;6.074;2023-07-31T05:31:00;98962.06;;;17.35;100.00
24858;BME280;12935;50.782;6.074;2023-07-31T05:33:26;98969.13;;;17.36;100.00
24858;BME280;12935;50.782;6.074;2023-07-31T05:35:51;98959.75;;;17.34;100.00
24858;BME280;12935;50.782;6.074;2023-07-31T05:38:17;98958.63;;;17.22;100.00
24858;BME280;12935;50.782;6.074;2023-07-31T05:40:42;98960.41;;;17.16;100.00
24858;BME280;12935;50.782;6.074;2023-07-31T05:43:08;98949.53;;;17.12;100.00
24858;BME280;12935;50.782;6.074;2023-07-31T05:45:34;98952.09;;;17.07;100.00
24858;BME280;12935;50.782;6.074;2023-07-31T05:48:00;98944.00;;;17.12;100.00
24858;BME280;12935;50.782;6.074;2023-07-31T05:50:25;98936.03;;;17.14;100.00
24858;BME280;12935;50.782;6.074;2023-07-31T05:52:50;98935.56;;;17.16;100.00
24858;BME280;12935;50.782;6.074;2023-07-31T05:55:16;98935.44;;;17.19;100.00
24858;BME280;12935;50.782;6.074;2023-07-31T05:57:42;98937.72;;;17.12;100.00
24858;BME280;12935;50.782;6.074;2023-07-31T06:00:07;98928.34;;;17.09;100.00
24858;BME280;12935;50.782;6.074;2023-07-31T06:02:33;98918.28;;;17.25;100.00
24858;BME280;12935;50.782;6.074;2023-07-31T06:05:01;98919.16;;;17.12;100.00
24858;BME280;12935;50.782;6.074;2023-07-31T06:07:27;98916.25;;;17.16;100.00
24858;BME280;12935;50.782;6.074;2023-07-31T06:09:52;98909.34;;;17.11;100.00
24858;BME280;12935;50.782;6.074;2023-07-31T06:12:19;98912.47;;;17.32;100.00
24858;BME280;12935;50.782;6.074;2023-07-31T06:14:45;98912.53;;;17.41;100.00
24858;BME280;12935;50.782;6.074;2023-07-31T06:17:10;98917.63;;;17.51;100.00
24858;BME280;12935;50.782;6.074;2023-07-31T06:19:35;98919.91;;;17.44;100.00
24858;BME280;12935;50.782;6.074;2023-07-31T06:22:01;98918.72;;;17.54;100.00
24858;BME280;12935;50.782;6.074;2023-07-31T06:24:28;98913.84;;;17.58;100.00
24858;BME280;12935;50.782;6.074;2023-07-31T06:26:53;98929.25;;;17.68;100.00
24858;BME280;12935;50.782;6.074;2023-07-31T06:29:19;98929.25;;;17.68;100.00
24858;BME280;12935;50.782;6.074;2023-07-31T06:31:44;98929.25;;;17.68;100.00
24858;BME280;12935;50.782;6.074;2023-07-31T06:34:09;98933.34;;;17.64;100.00
24858;BME280;12935;50.782;6.074;2023-07-31T06:36:35;98922.91;;;17.59;100.00
24858;BME280;12935;50.782;6.074;2023-07-31T06:39:00;98928.28;;;17.62;100.00
24858;BME280;12935;50.782;6.074;2023-07-31T06:41:25;98926.56;;;17.56;100.00
24858;BME280;12935;50.782;6.074;2023-07-31T06:43:50;98919.19;;;17.52;100.00
24858;BME280;12935;50.782;6.074;2023-07-31T06:46:16;98917.06;;;17.57;100.00
24858;BME280;12935;50.782;6.074;2023-07-31T06:48:41;98915.25;;;17.63;100.00
24858;BME280;12935;50.782;6.074;2023-07-31T06:51:07;98914.97;;;17.70;100.00
24858;BME280;12935;50.782;6.074;2023-07-31T06:53:32;98928.22;;;17.53;100.00
24858;BME280;12935;50.782;6.074;2023-07-31T06:55:57;98934.00;;;17.68;100.00
24858;BME280;12935;50.782;6.074;2023-07-31T06:58:23;98930.19;;;17.74;100.00
24858;BME280;12935;50.782;6.074;2023-07-31T07:00:49;98931.09;;;17.71;100.00
24858;BME280;12935;50.782;6.074;2023-07-31T07:03:18;98934.59;;;17.63;100.00
24858;BME280;12935;50.782;6.074;2023-07-31T07:05:43;98929.78;;;17.63;100.00
24858;BME280;12935;50.782;6.074;2023-07-31T07:08:09;98932.84;;;17.56;100.00
24858;BME280;12935;50.782;6.074;2023-07-31T07:10:34;98931.09;;;17.40;100.00
24858;BME280;12935;50.782;6.074;2023-07-31T07:12:59;98928.69;;;17.51;100.00
24858;BME280;12935;50.782;6.074;2023-07-31T07:15:24;98934.34;;;17.48;100.00
24858;BME280;12935;50.782;6.074;2023-07-31T07:17:50;98916.72;;;17.45;100.00
24858;BME280;12935;50.782;6.074;2023-07-31T07:20:15;98913.84;;;17.58;100.00
24858;BME280;12935;50.782;6.074;2023-07-31T07:22:40;98917.09;;;17.66;100.00
24858;BME280;12935;50.782;6.074;2023-07-31T07:25:08;98913.00;;;17.48;100.00
24858;BME280;12935;50.782;6.074;2023-07-31T07:27:34;98905.38;;;17.52;100.00
24858;BME280;12935;50.782;6.074;2023-07-31T07:29:59;98909.91;;;17.37;100.00
24858;BME280;12935;50.782;6.074;2023-07-31T07:32:25;98907.00;;;17.41;100.00
24858;BME280;12935;50.782;6.074;2023-07-31T07:34:50;98908.22;;;17.40;100.00
24858;BME280;12935;50.782;6.074;2023-07-31T07:37:16;98902.50;;;17.25;100.00
24858;BME280;12935;50.782;6.074;2023-07-31T07:39:41;98898.84;;;17.28;100.00
24858;BME280;12935;50.782;6.074;2023-07-31T07:42:07;98898.53;;;17.35;100.00
24858;BME280;12935;50.782;6.074;2023-07-31T07:44:32;98897.28;;;17.27;100.00
24858;BME280;12935;50.782;6.074;2023-07-31T07:46:57;98909.97;;;17.46;100.00
24858;BME280;12935;50.782;6.074;2023-07-31T07:49:23;98901.25;;;17.57;100.00
24858;BME280;12935;50.782;6.074;2023-07-31T07:51:49;98896.53;;;17.67;100.00
24858;BME280;12935;50.782;6.074;2023-07-31T07:54:14;98900.84;;;17.68;100.00
24858;BME280;12935;50.782;6.074;2023-07-31T07:56:41;98895.38;;;17.86;100.00
24858;BME280;12935;50.782;6.074;2023-07-31T07:59:07;98895.50;;;17.82;100.00
24858;BME280;12935;50.782;6.074;2023-07-31T08:01:32;98899.34;;;17.85;100.00
24858;BME280;12935;50.782;6.074;2023-07-31T08:03:58;98893.97;;;17.81;100.00
24858;BME280;12935;50.782;6.074;2023-07-31T08:06:23;98897.22;;;17.98;100.00
24858;BME280;12935;50.782;6.074;2023-07-31T08:08:49;98892.31;;;18.02;100.00
24858;BME280;12935;50.782;6.074;2023-07-31T08:11:14;98879.09;;;17.97;100.00
24858;BME280;12935;50.782;6.074;2023-07-31T08:13:39;98882.94;;;18.00;100.00
24858;BME280;12935;50.782;6.074;2023-07-31T08:16:05;98887.25;;;17.92;100.00
24858;BME280;12935;50.782;6.074;2023-07-31T08:18:31;98866.81;;;17.98;100.00
24858;BME280;12935;50.782;6.074;2023-07-31T08:20:57;98871.75;;;17.94;100.00
24858;BME280;12935;50.782;6.074;2023-07-31T08:23:22;98867.09;;;17.73;100.00
24858;BME280;12935;50.782;6.074;2023-07-31T08:25:48;98869.84;;;17.82;100.00
24858;BME280;12935;50.782;6.074;2023-07-31T08:28:15;98875.72;;;17.93;100.00
24858;BME280;12935;50.782;6.074;2023-07-31T08:30:40;98884.97;;;18.08;100.00
24858;BME280;12935;50.782;6.074;2023-07-31T08:33:06;98886.97;;;18.08;100.00
24858;BME280;12935;50.782;6.074;2023-07-31T08:35:32;98870.81;;;18.15;100.00
24858;BME280;12935;50.782;6.074;2023-07-31T08:37:57;98882.38;;;18.23;100.00
24858;BME280;12935;50.782;6.074;2023-07-31T08:40:22;98878.97;;;18.28;100.00
24858;BME280;12935;50.782;6.074;2023-07-31T08:42:49;98888.06;;;18.38;100.00
24858;BME280;12935;50.782;6.074;2023-07-31T08:45:16;98869.59;;;18.35;100.00
24858;BME280;12935;50.782;6.074;2023-07-31T08:47:44;98884.50;;;18.37;100.00
24858;BME280;12935;50.782;6.074;2023-07-31T08:50:12;98886.81;;;18.57;100.00
24858;BME280;12935;50.782;6.074;2023-07-31T08:52:39;98880.50;;;18.47;100.00
24858;BME280;12935;50.782;6.074;2023-07-31T08:55:05;98878.69;;;18.63;100.00
24858;BME280;12935;50.782;6.074;2023-07-31T08:57:31;98876.84;;;18.69;100.00
24858;BME280;12935;50.782;6.074;2023-07-31T08:59:59;98877.13;;;18.71;100.00
24858;BME280;12935;50.782;6.074;2023-07-31T09:05:10;98882.19;;;18.54;100.00
24858;BME280;12935;50.782;6.074;2023-07-31T09:07:36;98880.19;;;18.82;100.00
24858;BME280;12935;50.782;6.074;2023-07-31T09:10:03;98877.53;;;18.97;100.00
24858;BME280;12935;50.782;6.074;2023-07-31T09:12:29;98880.03;;;18.85;100.00
24858;BME280;12935;50.782;6.074;2023-07-31T09:14:54;98872.78;;;18.97;100.00
24858;BME280;12935;50.782;6.074;2023-07-31T09:17:33;98874.41;;;19.13;100.00
24858;BME280;12935;50.782;6.074;2023-07-31T09:20:25;98879.31;;;19.18;100.00
24858;BME280;12935;50.782;6.074;2023-07-31T09:22:51;98866.66;;;19.26;100.00
24858;BME280;12935;50.782;6.074;2023-07-31T09:25:18;98877.06;;;19.40;100.00
24858;BME280;12935;50.782;6.074;2023-07-31T09:27:48;98870.91;;;19.45;100.00
24858;BME280;12935;50.782;6.074;2023-07-31T09:30:14;98878.13;;;19.43;100.00
24858;BME280;12935;50.782;6.074;2023-07-31T09:32:39;98872.66;;;19.24;100.00
24858;BME280;12935;50.782;6.074;2023-07-31T09:35:33;98864.03;;;19.32;100.00
24858;BME280;12935;50.782;6.074;2023-07-31T09:38:12;98867.19;;;19.06;100.00
24858;BME280;12935;50.782;6.074;2023-07-31T09:40:39;98867.94;;;19.16;100.00
24858;BME280;12935;50.782;6.074;2023-07-31T09:43:25;98871.19;;;19.05;100.00
24858;BME280;12935;50.782;6.074;2023-07-31T09:45:55;98880.59;;;18.99;100.00
24858;BME280;12935;50.782;6.074;2023-07-31T09:48:23;98880.75;;;19.04;100.00
24858;BME280;12935;50.782;6.074;2023-07-31T09:50:50;98880.00;;;19.04;100.00
24858;BME280;12935;50.782;6.074;2023-07-31T09:53:16;98862.56;;;19.12;100.00
24858;BME280;12935;50.782;6.074;2023-07-31T09:55:42;98886.00;;;19.02;100.00
24858;BME280;12935;50.782;6.074;2023-07-31T09:58:09;98885.59;;;18.67;100.00
24858;BME280;12935;50.782;6.074;2023-07-31T10:00:35;98873.59;;;18.61;100.00
24858;BME280;12935;50.782;6.074;2023-07-31T10:03:04;98869.13;;;18.82;100.00
24858;BME280;12935;50.782;6.074;2023-07-31T10:05:42;98870.84;;;18.61;100.00
24858;BME280;12935;50.782;6.074;2023-07-31T10:08:10;98876.66;;;18.81;100.00
24858;BME280;12935;50.782;6.074;2023-07-31T10:10:42;98874.38;;;18.34;100.00
24858;BME280;12935;50.782;6.074;2023-07-31T10:13:08;98879.88;;;18.43;100.00
24858;BME280;12935;50.782;6.074;2023-07-31T10:15:34;98877.75;;;18.29;100.00
24858;BME280;12935;50.782;6.074;2023-07-31T10:18:00;98880.50;;;18.20;100.00
24858;BME280;12935;50.782;6.074;2023-07-31T10:20:26;98881.13;;;18.33;100.00
24858;BME280;12935;50.782;6.074;2023-07-31T10:22:54;98873.28;;;18.32;100.00
24858;BME280;12935;50.782;6.074;2023-07-31T10:25:21;98884.19;;;18.26;100.00
24858;BME280;12935;50.782;6.074;2023-07-31T10:27:47;98883.44;;;18.16;100.00
24858;BME280;12935;50.782;6.074;2023-07-31T10:30:15;98872.66;;;17.91;100.00
24858;BME280;12935;50.782;6.074;2023-07-31T10:32:43;98880.50;;;18.02;100.00
24858;BME280;12935;50.782;6.074;2023-07-31T10:35:09;98871.88;;;18.00;100.00
24858;BME280;12935;50.782;6.074;2023-07-31T10:37:41;98877.28;;;17.94;100.00
24858;BME280;12935;50.782;6.074;2023-07-31T10:40:26;98867.09;;;17.73;100.00
24858;BME280;12935;50.782;6.074;2023-07-31T10:42:56;98862.94;;;17.68;100.00
24858;BME280;12935;50.782;6.074;2023-07-31T10:45:38;98871.25;;;17.77;100.00
24858;BME280;12935;50.782;6.074;2023-07-31T10:50:31;98860.50;;;17.98;100.00
24858;BME280;12935;50.782;6.074;2023-07-31T10:53:00;98849.03;;;18.08;100.00
24858;BME280;12935;50.782;6.074;2023-07-31T10:55:41;98848.88;;;18.21;100.00
24858;BME280;12935;50.782;6.074;2023-07-31T10:58:18;98838.84;;;18.51;100.00
24858;BME280;12935;50.782;6.074;2023-07-31T11:00:44;98844.69;;;18.53;100.00
24858;BME280;12935;50.782;6.074;2023-07-31T11:03:19;98853.47;;;18.51;100.00
24858;BME280;12935;50.782;6.074;2023-07-31T11:05:52;98857.44;;;18.50;100.00
24858;BME280;12935;50.782;6.074;2023-07-31T11:10:51;98851.94;;;18.69;100.00
24858;BME280;12935;50.782;6.074;2023-07-31T11:13:16;98851.00;;;18.63;100.00
24858;BME280;12935;50.782;6.074;2023-07-31T11:15:42;98847.31;;;18.56;100.00
24858;BME280;12935;50.782;6.074;2023-07-31T11:18:07;98865.75;;;18.50;100.00
24858;BME280;12935;50.782;6.074;2023-07-31T11:20:35;98847.00;;;18.36;100.00
24858;BME280;12935;50.782;6.074;2023-07-31T11:23:06;98845.91;;;18.43;100.00
24858;BME280;12935;50.782;6.074;2023-07-31T11:25:32;98850.22;;;18.53;100.00
24858;BME280;12935;50.782;6.074;2023-07-31T11:28:04;98842.56;;;18.66;100.00
24858;BME280;12935;50.782;6.074;2023-07-31T11:30:30;98846.06;;;18.76;100.00
24858;BME280;12935;50.782;6.074;2023-07-31T11:32:56;98841.75;;;18.75;100.00
24858;BME280;12935;50.782;6.074;2023-07-31T11:35:21;98843.84;;;18.89;100.00
24858;BME280;12935;50.782;6.074;2023-07-31T11:37:47;98863.00;;;18.69;100.00
24858;BME280;12935;50.782;6.074;2023-07-31T11:40:14;98843.78;;;18.56;100.00
24858;BME280;12935;50.782;6.074;2023-07-31T11:42:40;98838.56;;;18.40;100.00
24858;BME280;12935;50.782;6.074;2023-07-31T11:45:09;98825.66;;;18.28;100.00
24858;BME280;12935;50.782;6.074;2023-07-31T11:47:37;98836.44;;;18.26;100.00
24858;BME280;12935;50.782;6.074;2023-07-31T11:50:04;98827.97;;;18.11;100.00
24858;BME280;12935;50.782;6.074;2023-07-31T11:52:34;98831.81;;;18.13;100.00
24858;BME280;12935;50.782;6.074;2023-07-31T11:55:00;98842.72;;;18.08;100.00
24858;BME280;12935;50.782;6.074;2023-07-31T11:57:27;98826.44;;;18.19;100.00
24858;BME280;12935;50.782;6.074;2023-07-31T11:59:53;98828.91;;;18.08;100.00
24858;BME280;12935;50.782;6.074;2023-07-31T12:02:19;98823.81;;;18.15;100.00
24858;BME280;12935;50.782;6.074;2023-07-31T12:04:46;98823.34;;;18.35;100.00
24858;BME280;12935;50.782;6.074;2023-07-31T12:07:12;98837.16;;;18.53;100.00
24858;BME280;12935;50.782;6.074;2023-07-31T12:09:38;98823.03;;;18.42;100.00
24858;BME280;12935;50.782;6.074;2023-07-31T12:12:07;98816.72;;;18.42;100.00
24858;BME280;12935;50.782;6.074;2023-07-31T12:14:33;98818.75;;;18.32;100.00
24858;BME280;12935;50.782;6.074;2023-07-31T12:17:00;98804.78;;;18.17;100.00
24858;BME280;12935;50.782;6.074;2023-07-31T12:19:29;98807.25;;;18.06;100.00
24858;BME280;12935;50.782;6.074;2023-07-31T12:21:55;98796.00;;;18.28;100.00
24858;BME280;12935;50.782;6.074;2023-07-31T12:24:21;98790.28;;;18.59;100.00
24858;BME280;12935;50.782;6.074;2023-07-31T12:26:47;98807.00;;;18.83;100.00
24858;BME280;12935;50.782;6.074;2023-07-31T12:29:13;98802.63;;;19.00;100.00
24858;BME280;12935;50.782;6.074;2023-07-31T12:31:41;98800.47;;;19.04;100.00
24858;BME280;12935;50.782;6.074;2023-07-31T12:34:16;98794.91;;;19.04;100.00
24858;BME280;12935;50.782;6.074;2023-07-31T12:36:46;98799.19;;;19.05;100.00
24858;BME280;12935;50.782;6.074;2023-07-31T12:39:14;98809.81;;;19.07;100.00
24858;BME280;12935;50.782;6.074;2023-07-31T12:41:40;98796.34;;;19.23;100.00
24858;BME280;12935;50.782;6.074;2023-07-31T12:44:05;98797.03;;;19.42;100.00
24858;BME280;12935;50.782;6.074;2023-07-31T12:46:30;98780.41;;;19.42;100.00
24858;BME280;12935;50.782;6.074;2023-07-31T12:48:56;98783.72;;;19.55;100.00
24858;BME280;12935;50.782;6.074;2023-07-31T12:51:21;98764.84;;;19.69;100.00
24858;BME280;12935;50.782;6.074;2023-07-31T12:53:46;98733.09;;;19.93;100.00
24858;BME280;12935;50.782;6.074;2023-07-31T12:56:12;98713.81;;;20.43;100.00
24858;BME280;12935;50.782;6.074;2023-07-31T12:58:37;98689.13;;;20.60;100.00